Time;durP1;ratioP1;P1;durP2;ratioP2;P2;SDS_P1;SDS_P2;PMS_P1;PMS_P2;Temp;Humidity;BMP_temperature;BMP_pressure;BME280_temperature;BME280_humidity;BME280_pressure;Samples;Min_cycle;Max_cycle;Signal;HPM_P1;HPM_P2
2022/09/18 00:02:23;;;;;;;8.13;1.77;;;;;;;;;;4402533;32;20715;-56
2022/09/18 00:04:51;;;;;;;6.97;2.40;;;;;;;;;;4403680;32;20264;-57
2022/09/18 00:07:19;;;;;;;9.25;2.17;;;;;;;;;;4403512;32;20307;-56
2022/09/18 00:09:46;;;;;;;8.32;1.98;;;;;;;;;;4403425;32;20244;-56
2022/09/18 00:12:13;;;;;;;4.53;2.12;;;;;;;;;;4403531;32;20635;-56
2022/09/18 00:14:40;;;;;;;6.87;2.33;;;;;;;;;;4403828;32;20260;-56
2022/09/18 00:17:07;;;;;;;12.82;2.90;;;;;;;;;;4403210;32;20258;-56
2022/09/18 00:19:34;;;;;;;4.95;2.15;;;;;;;;;;4403870;32;20336;-56
2022/09/18 00:22:02;;;;;;;12.35;1.77;;;;;;;;;;4403614;32;20640;-56
2022/09/18 00:24:29;;;;;;;11.70;2.20;;;;;;;;;;4403077;32;20311;-56
2022/09/18 00:26:56;;;;;;;7.45;2.35;;;;;;;;;;4402752;32;20299;-54
2022/09/18 00:29:23;;;;;;;9.05;1.95;;;;;;;;;;4402999;32;20643;-55
2022/09/18 00:31:50;;;;;;;10.25;2.25;;;;;;;;;;4403087;32;20269;-55
2022/09/18 00:34:17;;;;;;;5.75;1.70;;;;;;;;;;4403097;32;20711;-55
2022/09/18 00:36:44;;;;;;;16.10;2.28;;;;;;;;;;4402741;32;20323;-56
2022/09/18 00:39:13;;;;;;;9.15;2.42;;;;;;;;;;4402765;32;20518;-57
2022/09/18 00:41:43;;;;;;;8.80;2.10;;;;;;;;;;4402803;32;20264;-56
2022/09/18 00:44:38;;;;;;;11.43;2.47;;;;;;;;;;4402822;32;20217;-55
2022/09/18 00:47:16;;;;;;;4.62;1.85;;;;;;;;;;4403020;32;20381;-54
2022/09/18 00:49:47;;;;;;;3.67;2.30;;;;;;;;;;4403070;32;20279;-56
2022/09/18 00:52:16;;;;;;;6.28;2.55;;;;;;;;;;4402907;32;20226;-56
2022/09/18 00:54:48;;;;;;;8.43;2.40;;;;;;;;;;4403120;32;20240;-56
2022/09/18 00:57:18;;;;;;;11.98;2.90;;;;;;;;;;4402453;32;20293;-56
2022/09/18 00:59:48;;;;;;;3.97;2.25;;;;;;;;;;4402829;32;20496;-56
2022/09/18 01:02:15;;;;;;;11.07;2.87;;;;;;;;;;4402659;32;20244;-56
2022/09/18 01:04:42;;;;;;;11.25;2.42;;;;;;;;;;4402937;32;20236;-56
2022/09/18 01:07:18;;;;;;;10.40;2.72;;;;;;;;;;4388733;32;20261;-56
2022/09/18 01:09:56;;;;;;;8.98;2.10;;;;;;;;;;4400561;32;20755;-56
2022/09/18 01:12:33;;;;;;;10.32;2.62;;;;;;;;;;4402065;32;20221;-55
2022/09/18 01:15:08;;;;;;;8.73;2.58;;;;;;;;;;4402470;32;20251;-56
2022/09/18 01:17:39;;;;;;;3.05;2.03;;;;;;;;;;4402588;32;20283;-57
2022/09/18 01:20:33;;;;;;;5.95;2.10;;;;;;;;;;4402492;32;20641;-56
2022/09/18 01:23:14;;;;;;;7.07;1.95;;;;;;;;;;4402584;32;20300;-56
2022/09/18 01:25:56;;;;;;;9.40;2.33;;;;;;;;;;4402385;32;20260;-55
2022/09/18 01:28:31;;;;;;;14.52;1.90;;;;;;;;;;4402701;32;20251;-56
2022/09/18 01:31:05;;;;;;;9.90;2.65;;;;;;;;;;4402474;32;20776;-57
2022/09/18 01:33:37;;;;;;;3.00;1.70;;;;;;;;;;4402452;32;20235;-56
2022/09/18 01:36:08;;;;;;;5.32;2.03;;;;;;;;;;4402350;32;20286;-56
2022/09/18 01:38:40;;;;;;;5.78;1.90;;;;;;;;;;4402680;32;20280;-56
2022/09/18 01:41:12;;;;;;;6.10;1.62;;;;;;;;;;4401180;32;20374;-57
2022/09/18 01:43:41;;;;;;;8.80;1.87;;;;;;;;;;4402301;32;20213;-56
2022/09/18 01:46:13;;;;;;;10.90;1.80;;;;;;;;;;4401898;32;20312;-56
2022/09/18 01:48:45;;;;;;;6.30;2.20;;;;;;;;;;4409667;32;20274;-55
2022/09/18 01:51:17;;;;;;;6.05;2.28;;;;;;;;;;4402395;32;20348;-57
2022/09/18 01:53:48;;;;;;;2.83;1.70;;;;;;;;;;4402716;32;20671;-56
2022/09/18 01:56:20;;;;;;;6.72;1.70;;;;;;;;;;4402127;32;20252;-56
2022/09/18 01:58:51;;;;;;;5.97;2.53;;;;;;;;;;4402132;32;20279;-56
2022/09/18 02:01:20;;;;;;;6.18;1.90;;;;;;;;;;4400201;32;20252;-56
2022/09/18 02:03:50;;;;;;;9.32;2.53;;;;;;;;;;4399957;32;20770;-57
2022/09/18 02:06:21;;;;;;;7.68;3.08;;;;;;;;;;4397521;32;20294;-56
2022/09/18 02:08:51;;;;;;;8.77;3.08;;;;;;;;;;4401924;32;20279;-57
2022/09/18 02:11:20;;;;;;;9.57;3.17;;;;;;;;;;4401181;32;20268;-58
2022/09/18 02:13:52;;;;;;;10.68;4.07;;;;;;;;;;4401265;32;20209;-58
2022/09/18 02:16:28;;;;;;;5.68;3.12;;;;;;;;;;4401548;32;20241;-57
2022/09/18 02:18:57;;;;;;;15.02;4.45;;;;;;;;;;4401642;32;20225;-57
2022/09/18 02:21:27;;;;;;;8.88;3.58;;;;;;;;;;4401466;32;20308;-57
2022/09/18 02:23:57;;;;;;;13.40;4.37;;;;;;;;;;4400759;32;20201;-56
2022/09/18 02:26:25;;;;;;;5.15;3.40;;;;;;;;;;4400548;32;20284;-57
2022/09/18 02:28:56;;;;;;;13.75;4.47;;;;;;;;;;4400745;32;20218;-57
2022/09/18 02:31:23;;;;;;;13.13;3.78;;;;;;;;;;4401016;32;20308;-55
2022/09/18 02:33:51;;;;;;;11.48;3.28;;;;;;;;;;4400932;32;20237;-55
2022/09/18 02:36:44;;;;;;;6.35;3.47;;;;;;;;;;4396944;32;20241;-55
2022/09/18 02:39:27;;;;;;;13.07;3.47;;;;;;;;;;4401485;32;20245;-56
2022/09/18 02:42:02;;;;;;;8.65;4.00;;;;;;;;;;4400694;32;20594;-56
2022/09/18 02:44:38;;;;;;;13.57;3.95;;;;;;;;;;4399485;32;20478;-57
2022/09/18 02:47:15;;;;;;;4.07;2.92;;;;;;;;;;4400660;32;20297;-55
2022/09/18 02:49:55;;;;;;;6.68;2.85;;;;;;;;;;4400646;32;20626;-55
2022/09/18 02:52:27;;;;;;;12.20;2.95;;;;;;;;;;4401236;32;20324;-54
2022/09/18 02:54:57;;;;;;;4.97;2.75;;;;;;;;;;4400828;32;20705;-56
2022/09/18 02:57:34;;;;;;;3.67;2.37;;;;;;;;;;4401055;32;20257;-54
2022/09/18 03:00:05;;;;;;;3.60;2.50;;;;;;;;;;4400973;32;20225;-55
2022/09/18 03:02:32;;;;;;;4.12;2.87;;;;;;;;;;4400863;32;20286;-55
2022/09/18 03:04:59;;;;;;;6.32;2.15;;;;;;;;;;4401309;32;20603;-55
2022/09/18 03:07:26;;;;;;;2.37;2.00;;;;;;;;;;4381153;32;20243;-57
2022/09/18 03:09:53;;;;;;;4.05;1.73;;;;;;;;;;4390723;32;20229;-55
2022/09/18 03:12:20;;;;;;;2.42;1.45;;;;;;;;;;4400834;32;20218;-55
2022/09/18 03:14:46;;;;;;;2.42;1.70;;;;;;;;;;4400743;32;20724;-55
2022/09/18 03:17:15;;;;;;;6.22;1.60;;;;;;;;;;4400743;32;20676;-56
2022/09/18 03:19:43;;;;;;;5.45;1.70;;;;;;;;;;4401039;32;20245;-55
2022/09/18 03:22:10;;;;;;;3.58;1.60;;;;;;;;;;4400924;32;20238;-54
2022/09/18 03:24:37;;;;;;;2.05;1.40;;;;;;;;;;4401109;32;20644;-56
2022/09/18 03:27:04;;;;;;;10.60;1.85;;;;;;;;;;4400408;32;20248;-55
2022/09/18 03:29:31;;;;;;;2.95;1.50;;;;;;;;;;4400610;32;20213;-57
2022/09/18 03:31:58;;;;;;;5.03;1.83;;;;;;;;;;4398277;32;20304;-54
2022/09/18 03:34:26;;;;;;;2.62;1.40;;;;;;;;;;4401072;32;20220;-54
2022/09/18 03:36:53;;;;;;;2.78;1.33;;;;;;;;;;4402082;32;20275;-54
2022/09/18 03:39:20;;;;;;;2.78;1.40;;;;;;;;;;4403884;32;20707;-55
2022/09/18 03:41:47;;;;;;;2.83;1.05;;;;;;;;;;4403274;32;20683;-56
2022/09/18 03:44:14;;;;;;;2.95;1.17;;;;;;;;;;4403106;32;20221;-55
2022/09/18 03:46:41;;;;;;;3.78;0.93;;;;;;;;;;4403933;32;20270;-55
2022/09/18 03:49:07;;;;;;;2.53;0.80;;;;;;;;;;4403633;32;20316;-56
2022/09/18 03:51:36;;;;;;;1.65;0.90;;;;;;;;;;4403491;32;20237;-55
2022/09/18 03:54:03;;;;;;;1.43;0.70;;;;;;;;;;4403160;32;20316;-57
2022/09/18 03:56:30;;;;;;;2.60;0.90;;;;;;;;;;4403196;32;20282;-55
2022/09/18 03:58:57;;;;;;;1.70;0.90;;;;;;;;;;4402991;32;20671;-54
2022/09/18 04:01:24;;;;;;;3.27;0.80;;;;;;;;;;4402809;32;20698;-55
2022/09/18 04:03:51;;;;;;;1.93;0.87;;;;;;;;;;4402950;32;20623;-56
2022/09/18 04:06:18;;;;;;;4.33;0.80;;;;;;;;;;4402912;32;20271;-55
2022/09/18 04:08:46;;;;;;;1.70;0.80;;;;;;;;;;4403356;32;20276;-54
2022/09/18 04:11:13;;;;;;;0.80;0.80;;;;;;;;;;4402656;32;20249;-55
2022/09/18 04:13:40;;;;;;;1.50;0.80;;;;;;;;;;4403280;32;20424;-56
2022/09/18 04:16:07;;;;;;;2.87;1.48;;;;;;;;;;4403240;32;20335;-56
2022/09/18 04:18:33;;;;;;;2.97;1.70;;;;;;;;;;4403140;32;20230;-56
2022/09/18 04:21:00;;;;;;;0.62;0.60;;;;;;;;;;4403053;32;20675;-55
2022/09/18 04:23:28;;;;;;;0.60;0.55;;;;;;;;;;4402870;32;20736;-55
2022/09/18 04:25:57;;;;;;;5.82;0.90;;;;;;;;;;4402501;32;20327;-54
2022/09/18 04:28:23;;;;;;;1.60;0.80;;;;;;;;;;4402414;32;20225;-55
2022/09/18 04:30:50;;;;;;;1.40;0.70;;;;;;;;;;4403188;32;20233;-55
2022/09/18 04:33:17;;;;;;;0.95;0.75;;;;;;;;;;4402870;32;20349;-56
2022/09/18 04:35:44;;;;;;;1.70;0.65;;;;;;;;;;4402631;32;20529;-56
2022/09/18 04:38:11;;;;;;;0.75;0.75;;;;;;;;;;4402487;32;20235;-56
2022/09/18 04:40:38;;;;;;;0.90;0.65;;;;;;;;;;4402491;32;20283;-56
2022/09/18 04:43:09;;;;;;;2.33;0.90;;;;;;;;;;4402078;32;20233;-56
2022/09/18 04:45:36;;;;;;;0.77;0.65;;;;;;;;;;4402539;32;20677;-54
2022/09/18 04:48:03;;;;;;;2.92;1.70;;;;;;;;;;4402163;32;20221;-52
2022/09/18 04:50:30;;;;;;;0.90;0.80;;;;;;;;;;4402602;32;20610;-54
2022/09/18 04:52:56;;;;;;;4.50;0.60;;;;;;;;;;4401820;32;20316;-53
2022/09/18 04:55:24;;;;;;;2.85;0.93;;;;;;;;;;4402078;32;20294;-52
2022/09/18 04:57:54;;;;;;;1.23;0.65;;;;;;;;;;4401809;32;20222;-54
2022/09/18 05:00:22;;;;;;;2.60;0.77;;;;;;;;;;4401954;32;20250;-55
2022/09/18 05:02:49;;;;;;;0.95;0.80;;;;;;;;;;4401575;32;20764;-54
2022/09/18 05:05:18;;;;;;;1.40;0.80;;;;;;;;;;4400491;32;20286;-56
2022/09/18 05:07:45;;;;;;;0.98;0.50;;;;;;;;;;4386782;32;20250;-56
2022/09/18 05:10:12;;;;;;;0.87;0.60;;;;;;;;;;4386949;32;20348;-56
2022/09/18 05:12:39;;;;;;;0.47;0.47;;;;;;;;;;4387382;32;20221;-56
2022/09/18 05:15:08;;;;;;;0.53;0.50;;;;;;;;;;4396016;32;20340;-53
2022/09/18 05:17:39;;;;;;;4.20;0.60;;;;;;;;;;4401920;32;20272;-54
2022/09/18 05:20:06;;;;;;;3.37;0.70;;;;;;;;;;4402241;32;20234;-54
2022/09/18 05:22:33;;;;;;;1.93;0.60;;;;;;;;;;4402038;32;20671;-54
2022/09/18 05:25:00;;;;;;;3.57;0.80;;;;;;;;;;4401374;32;20320;-57
2022/09/18 05:27:27;;;;;;;1.57;0.80;;;;;;;;;;4402042;32;20316;-56
2022/09/18 05:29:54;;;;;;;1.17;1.08;;;;;;;;;;4401469;32;20218;-56
2022/09/18 05:32:21;;;;;;;6.00;0.80;;;;;;;;;;4402251;32;20527;-55
2022/09/18 05:34:50;;;;;;;2.57;0.70;;;;;;;;;;4402713;32;20244;-55
2022/09/18 05:37:17;;;;;;;0.60;0.60;;;;;;;;;;4402239;32;20346;-54
2022/09/18 05:39:45;;;;;;;3.53;1.77;;;;;;;;;;4402017;32;20240;-55
2022/09/18 05:42:12;;;;;;;1.67;0.80;;;;;;;;;;4402097;32;20256;-56
2022/09/18 05:44:39;;;;;;;0.60;0.60;;;;;;;;;;4401994;32;20213;-55
2022/09/18 05:47:06;;;;;;;0.60;0.60;;;;;;;;;;4401557;32;20206;-55
2022/09/18 05:49:33;;;;;;;0.80;0.80;;;;;;;;;;4401435;32;20312;-55
2022/09/18 05:52:02;;;;;;;2.87;0.80;;;;;;;;;;4401575;32;20563;-56
2022/09/18 05:54:28;;;;;;;0.65;0.65;;;;;;;;;;4401663;32;20352;-56
2022/09/18 05:56:55;;;;;;;1.77;0.60;;;;;;;;;;4401520;32;20247;-56
2022/09/18 05:59:22;;;;;;;0.77;0.77;;;;;;;;;;4401234;32;20241;-56
2022/09/18 06:01:51;;;;;;;3.62;0.93;;;;;;;;;;4401193;32;20577;-56
2022/09/18 06:04:20;;;;;;;3.70;0.77;;;;;;;;;;4399689;32;20285;-56
2022/09/18 06:06:46;;;;;;;0.62;0.62;;;;;;;;;;4385554;32;20229;-57
2022/09/18 06:09:17;;;;;;;0.80;0.80;;;;;;;;;;4385851;32;20213;-56
2022/09/18 06:11:44;;;;;;;1.37;0.73;;;;;;;;;;4392787;32;20229;-56
2022/09/18 06:14:11;;;;;;;0.82;0.60;;;;;;;;;;4401259;32;20252;-54
2022/09/18 06:16:38;;;;;;;1.00;0.90;;;;;;;;;;4401227;32;20312;-54
2022/09/18 06:19:04;;;;;;;0.73;0.70;;;;;;;;;;4401482;32;20265;-56
2022/09/18 06:21:31;;;;;;;3.40;1.20;;;;;;;;;;4400810;32;20684;-56
2022/09/18 06:23:58;;;;;;;5.28;1.08;;;;;;;;;;4401046;32;20260;-56
2022/09/18 06:26:32;;;;;;;1.37;1.10;;;;;;;;;;4401181;32;20239;-55
2022/09/18 06:29:05;;;;;;;6.03;0.90;;;;;;;;;;4401168;32;20371;-55
2022/09/18 06:31:32;;;;;;;2.03;1.00;;;;;;;;;;4401164;32;20345;-56
2022/09/18 06:33:58;;;;;;;1.05;0.80;;;;;;;;;;4399542;32;20280;-53
2022/09/18 06:36:25;;;;;;;1.15;0.90;;;;;;;;;;4396473;32;20221;-54
2022/09/18 06:38:52;;;;;;;4.43;1.12;;;;;;;;;;4395475;32;20241;-54
2022/09/18 06:41:19;;;;;;;2.50;0.82;;;;;;;;;;4386139;32;20256;-54
2022/09/18 06:43:49;;;;;;;1.35;1.02;;;;;;;;;;4386034;32;20260;-55
2022/09/18 06:46:16;;;;;;;0.70;0.70;;;;;;;;;;4386062;32;20268;-55
2022/09/18 06:48:42;;;;;;;2.47;0.77;;;;;;;;;;4385832;32;20226;-55
2022/09/18 06:51:10;;;;;;;5.45;1.00;;;;;;;;;;4400898;32;20286;-55
2022/09/18 06:53:37;;;;;;;0.98;0.88;;;;;;;;;;4400756;32;20316;-55
2022/09/18 06:56:04;;;;;;;1.15;1.00;;;;;;;;;;4401424;32;20241;-54
2022/09/18 06:58:31;;;;;;;1.55;1.35;;;;;;;;;;4401170;32;20657;-56
2022/09/18 07:01:00;;;;;;;2.95;1.17;;;;;;;;;;4401439;32;20712;-55
2022/09/18 07:03:27;;;;;;;1.58;1.08;;;;;;;;;;4385656;32;20799;-56
2022/09/18 07:05:54;;;;;;;1.92;1.00;;;;;;;;;;4385314;32;20323;-55
2022/09/18 07:08:21;;;;;;;2.35;0.90;;;;;;;;;;4385947;32;20229;-56
2022/09/18 07:10:48;;;;;;;0.70;0.70;;;;;;;;;;4385313;32;20469;-56
2022/09/18 07:13:15;;;;;;;1.50;1.17;;;;;;;;;;4389098;32;20261;-56
2022/09/18 07:15:42;;;;;;;2.58;0.93;;;;;;;;;;4401716;32;20222;-55
2022/09/18 07:18:10;;;;;;;1.08;0.98;;;;;;;;;;4404403;32;20371;-56
2022/09/18 07:20:37;;;;;;;4.68;1.02;;;;;;;;;;4404692;32;20338;-57
2022/09/18 07:23:04;;;;;;;1.40;1.10;;;;;;;;;;4404029;32;20241;-55
2022/09/18 07:25:33;;;;;;;1.10;1.00;;;;;;;;;;4403766;32;20299;-56
2022/09/18 07:28:04;;;;;;;2.35;1.00;;;;;;;;;;4404195;32;20648;-56
2022/09/18 07:30:31;;;;;;;1.55;1.05;;;;;;;;;;4404109;32;20319;-54
2022/09/18 07:32:58;;;;;;;3.12;1.00;;;;;;;;;;4404341;32;20247;-54
2022/09/18 07:35:27;;;;;;;1.58;0.73;;;;;;;;;;4404459;32;20237;-55
2022/09/18 07:37:57;;;;;;;1.25;1.00;;;;;;;;;;4404152;32;20260;-55
2022/09/18 07:40:24;;;;;;;1.30;1.00;;;;;;;;;;4403601;32;20596;-54
2022/09/18 07:42:51;;;;;;;0.80;0.80;;;;;;;;;;4403650;32;20240;-54
2022/09/18 07:45:18;;;;;;;1.02;0.68;;;;;;;;;;4404172;32;20311;-54
2022/09/18 07:47:45;;;;;;;0.65;0.62;;;;;;;;;;4403814;32;20275;-55
2022/09/18 07:50:14;;;;;;;1.10;0.70;;;;;;;;;;4404373;32;20684;-54
2022/09/18 07:52:50;;;;;;;10.75;1.70;;;;;;;;;;4402072;32;20241;-54
2022/09/18 07:55:18;;;;;;;1.33;1.10;;;;;;;;;;4403714;32;20292;-55
2022/09/18 07:57:45;;;;;;;1.40;0.80;;;;;;;;;;4403325;32;20291;-54
2022/09/18 08:00:13;;;;;;;4.20;0.80;;;;;;;;;;4403936;32;20885;-55
2022/09/18 08:02:40;;;;;;;1.25;0.90;;;;;;;;;;4403290;32;20320;-54
2022/09/18 08:05:08;;;;;;;2.95;1.00;;;;;;;;;;4403350;32;20581;-55
2022/09/18 08:07:35;;;;;;;1.65;1.08;;;;;;;;;;4403878;32;20737;-54
2022/09/18 08:10:05;;;;;;;0.95;0.82;;;;;;;;;;4403377;32;20221;-55
2022/09/18 08:12:32;;;;;;;3.40;0.75;;;;;;;;;;4403350;32;20237;-55
2022/09/18 08:14:59;;;;;;;5.60;0.82;;;;;;;;;;4402790;32;20222;-56
2022/09/18 08:17:26;;;;;;;0.95;0.70;;;;;;;;;;4403162;32;20447;-55
2022/09/18 08:19:53;;;;;;;1.00;0.73;;;;;;;;;;4403429;32;20251;-55
2022/09/18 08:22:20;;;;;;;0.80;0.80;;;;;;;;;;4402877;32;20688;-54
2022/09/18 08:24:47;;;;;;;1.12;1.00;;;;;;;;;;4403164;32;20264;-55
2022/09/18 08:27:15;;;;;;;4.22;0.70;;;;;;;;;;4402972;32;20233;-55
2022/09/18 08:29:42;;;;;;;1.58;0.88;;;;;;;;;;4402802;32;20738;-55
2022/09/18 08:32:09;;;;;;;1.40;0.80;;;;;;;;;;4403363;32;20344;-54
2022/09/18 08:34:36;;;;;;;1.73;1.02;;;;;;;;;;4402748;32;20214;-55
2022/09/18 08:37:03;;;;;;;1.42;0.65;;;;;;;;;;4403155;32;20232;-56
2022/09/18 08:39:30;;;;;;;1.15;0.80;;;;;;;;;;4402710;32;20711;-56
2022/09/18 08:42:14;;;;;;;0.75;0.73;;;;;;;;;;4402525;32;20661;-55
2022/09/18 08:44:48;;;;;;;1.52;1.15;;;;;;;;;;4403410;32;20300;-56
2022/09/18 08:47:21;;;;;;;1.73;0.90;;;;;;;;;;4403150;32;20249;-55
2022/09/18 08:49:51;;;;;;;1.52;1.05;;;;;;;;;;4402474;32;20323;-54
2022/09/18 08:52:21;;;;;;;0.98;0.80;;;;;;;;;;4402781;32;20331;-54
2022/09/18 08:54:55;;;;;;;1.55;1.10;;;;;;;;;;4402901;32;20556;-55
2022/09/18 08:57:25;;;;;;;4.45;1.60;;;;;;;;;;4402731;32;20272;-55
2022/09/18 08:59:57;;;;;;;5.00;1.77;;;;;;;;;;4403033;32;20257;-55
2022/09/18 09:02:39;;;;;;;5.55;2.65;;;;;;;;;;4402290;32;20290;-55
2022/09/18 09:05:10;;;;;;;4.37;1.33;;;;;;;;;;4402208;32;20271;-56
2022/09/18 09:07:52;;;;;;;1.65;1.00;;;;;;;;;;4387768;32;20257;-56
2022/09/18 09:10:37;;;;;;;4.18;2.22;;;;;;;;;;4396525;32;20604;-55
2022/09/18 09:13:25;;;;;;;7.65;3.15;;;;;;;;;;4402804;32;20286;-55
2022/09/18 09:15:59;;;;;;;5.45;2.28;;;;;;;;;;4402084;32;20248;-55
2022/09/18 09:18:32;;;;;;;3.30;1.70;;;;;;;;;;4402346;32;20241;-56
2022/09/18 09:21:05;;;;;;;3.25;1.77;;;;;;;;;;4402712;32;20279;-55
2022/09/18 09:23:46;;;;;;;5.47;2.03;;;;;;;;;;4402481;32;20255;-56
2022/09/18 09:26:17;;;;;;;3.70;2.22;;;;;;;;;;4402572;32;20264;-55
2022/09/18 09:28:52;;;;;;;4.22;1.92;;;;;;;;;;4402836;32;20332;-54
2022/09/18 09:31:30;;;;;;;1.87;1.20;;;;;;;;;;4402715;32;20310;-53
2022/09/18 09:34:01;;;;;;;6.65;1.75;;;;;;;;;;4401669;32;20247;-53
2022/09/18 09:36:30;;;;;;;4.18;1.62;;;;;;;;;;4401938;32;20397;-53
2022/09/18 09:39:04;;;;;;;2.25;1.52;;;;;;;;;;4402163;32;20312;-53
2022/09/18 09:41:37;;;;;;;5.45;1.70;;;;;;;;;;4402362;32;20634;-54
2022/09/18 09:44:24;;;;;;;2.70;1.50;;;;;;;;;;4402412;32;20332;-53
2022/09/18 09:47:04;;;;;;;3.60;2.05;;;;;;;;;;4402168;32;20700;-54
2022/09/18 09:49:35;;;;;;;1.87;1.10;;;;;;;;;;4402063;32;20222;-53
2022/09/18 09:52:09;;;;;;;1.80;0.90;;;;;;;;;;4402178;32;20235;-54
2022/09/18 09:54:36;;;;;;;1.33;1.08;;;;;;;;;;4401832;32;20217;-54
2022/09/18 09:57:16;;;;;;;2.42;1.30;;;;;;;;;;4401760;32;20213;-55
2022/09/18 09:59:51;;;;;;;1.87;0.98;;;;;;;;;;4402527;32;20218;-54
2022/09/18 10:02:34;;;;;;;1.85;0.98;;;;;;;;;;4402008;32;20232;-54
2022/09/18 10:05:11;;;;;;;2.60;1.10;;;;;;;;;;4401540;32;20221;-54
2022/09/18 10:07:44;;;;;;;4.12;1.65;;;;;;;;;;4386170;32;20330;-54
2022/09/18 10:10:19;;;;;;;4.30;1.27;;;;;;;;;;4386342;32;20225;-54
2022/09/18 10:12:52;;;;;;;1.23;1.00;;;;;;;;;;4387433;32;20750;-55
2022/09/18 10:15:22;;;;;;;1.35;1.00;;;;;;;;;;4401759;32;20633;-55
2022/09/18 10:17:55;;;;;;;1.15;0.90;;;;;;;;;;4401346;32;20296;-56
2022/09/18 10:20:26;;;;;;;1.80;0.75;;;;;;;;;;4401494;32;20642;-54
2022/09/18 10:22:55;;;;;;;1.70;0.90;;;;;;;;;;4401369;32;20318;-54
2022/09/18 10:25:29;;;;;;;0.73;0.73;;;;;;;;;;4401901;32;20304;-55
2022/09/18 10:27:56;;;;;;;10.57;1.05;;;;;;;;;;4401265;32;20240;-54
2022/09/18 10:30:23;;;;;;;1.50;1.15;;;;;;;;;;4401187;32;20230;-54
2022/09/18 10:32:51;;;;;;;3.85;2.00;;;;;;;;;;4401431;32;20316;-54
2022/09/18 10:35:45;;;;;;;1.25;0.75;;;;;;;;;;4401518;32;20730;-56
2022/09/18 10:38:32;;;;;;;1.60;1.08;;;;;;;;;;4356382;32;20465;-55
2022/09/18 10:41:25;;;;;;;0.70;0.70;;;;;;;;;;4400963;32;20318;-55
2022/09/18 10:43:56;;;;;;;0.93;0.62;;;;;;;;;;4401028;32;20221;-54
2022/09/18 10:46:27;;;;;;;4.62;1.45;;;;;;;;;;4400465;32;20553;-54
2022/09/18 10:48:58;;;;;;;2.10;1.08;;;;;;;;;;4399556;32;20635;-55
2022/09/18 10:51:27;;;;;;;1.75;0.73;;;;;;;;;;4399037;32;20284;-55
2022/09/18 10:54:14;;;;;;;1.77;1.00;;;;;;;;;;4399132;32;20290;-55
2022/09/18 10:56:40;;;;;;;0.70;0.70;;;;;;;;;;4399051;32;20221;-55
2022/09/18 10:59:28;;;;;;;1.35;0.70;;;;;;;;;;4399397;32;20251;-55
2022/09/18 11:01:56;;;;;;;0.98;0.80;;;;;;;;;;4400135;32;20773;-55
2022/09/18 11:04:26;;;;;;;1.58;1.00;;;;;;;;;;4401151;32;20281;-55
2022/09/18 11:06:54;;;;;;;1.90;0.75;;;;;;;;;;4400635;32;20307;-54
2022/09/18 11:09:32;;;;;;;2.58;0.70;;;;;;;;;;4400515;32;20323;-55
2022/09/18 11:11:59;;;;;;;1.73;0.90;;;;;;;;;;4411610;32;20690;-55
2022/09/18 11:14:29;;;;;;;1.95;0.93;;;;;;;;;;4401237;32;20257;-55
2022/09/18 11:16:58;;;;;;;2.37;1.10;;;;;;;;;;4400478;32;20236;-55
2022/09/18 11:19:30;;;;;;;0.90;0.70;;;;;;;;;;4401033;32;20209;-55
2022/09/18 11:22:00;;;;;;;2.75;1.85;;;;;;;;;;4400339;32;20318;-56
2022/09/18 11:24:32;;;;;;;1.62;0.88;;;;;;;;;;4401111;32;20241;-56
2022/09/18 11:27:00;;;;;;;2.95;1.12;;;;;;;;;;4400572;32;20728;-57
2022/09/18 11:29:32;;;;;;;0.90;0.60;;;;;;;;;;4399518;32;20300;-54
2022/09/18 11:32:03;;;;;;;1.33;0.70;;;;;;;;;;4399770;32;20255;-54
2022/09/18 11:34:34;;;;;;;8.95;0.90;;;;;;;;;;4400671;32;20213;-55
2022/09/18 11:37:05;;;;;;;1.02;0.80;;;;;;;;;;4399797;32;20222;-55
2022/09/18 11:39:35;;;;;;;1.55;1.05;;;;;;;;;;4400958;32;20304;-56
2022/09/18 11:42:08;;;;;;;2.60;0.77;;;;;;;;;;4400874;32;20728;-54
2022/09/18 11:44:36;;;;;;;0.80;0.68;;;;;;;;;;4400843;32;20278;-55
2022/09/18 11:47:21;;;;;;;2.22;0.75;;;;;;;;;;4400424;32;20324;-56
2022/09/18 11:49:52;;;;;;;1.35;1.00;;;;;;;;;;4400453;32;20241;-55
2022/09/18 11:52:25;;;;;;;1.15;0.77;;;;;;;;;;4400276;32;20680;-54
2022/09/18 11:54:56;;;;;;;1.80;0.80;;;;;;;;;;4400872;32;20233;-56
2022/09/18 11:57:30;;;;;;;2.87;1.10;;;;;;;;;;4401819;32;20267;-56
2022/09/18 12:00:00;;;;;;;0.93;0.60;;;;;;;;;;4400681;32;20222;-54
2022/09/18 12:02:35;;;;;;;3.85;0.88;;;;;;;;;;4403258;32;20304;-56
2022/09/18 12:05:13;;;;;;;1.45;0.77;;;;;;;;;;4403037;32;20645;-55
2022/09/18 12:07:47;;;;;;;1.95;1.08;;;;;;;;;;4386068;32;20754;-55
2022/09/18 12:10:20;;;;;;;1.08;0.68;;;;;;;;;;4386680;32;20261;-56
2022/09/18 12:12:51;;;;;;;2.40;0.88;;;;;;;;;;4387280;32;20262;-56
2022/09/18 12:15:21;;;;;;;4.53;1.70;;;;;;;;;;4387853;32;20987;-56
2022/09/18 12:17:55;;;;;;;5.03;1.12;;;;;;;;;;4390951;32;20735;-56
2022/09/18 12:20:27;;;;;;;3.72;0.90;;;;;;;;;;4401949;32;20241;-57
2022/09/18 12:22:56;;;;;;;4.15;1.20;;;;;;;;;;4401966;32;20308;-57
2022/09/18 12:25:38;;;;;;;2.92;1.00;;;;;;;;;;4394913;32;20304;-56
2022/09/18 12:28:11;;;;;;;3.10;1.80;;;;;;;;;;4401926;32;20319;-55
2022/09/18 12:30:46;;;;;;;2.00;1.50;;;;;;;;;;4402671;32;20226;-55
2022/09/18 12:33:24;;;;;;;4.82;1.40;;;;;;;;;;4402447;32;20277;-56
2022/09/18 12:36:09;;;;;;;2.67;1.37;;;;;;;;;;4402429;32;20240;-57
2022/09/18 12:38:52;;;;;;;1.48;1.00;;;;;;;;;;4402607;32;20244;-56
2022/09/18 12:41:40;;;;;;;1.30;0.70;;;;;;;;;;4402290;32;20237;-56
2022/09/18 12:44:21;;;;;;;0.98;0.88;;;;;;;;;;4401741;32;20233;-56
2022/09/18 12:47:02;;;;;;;2.05;1.00;;;;;;;;;;4401692;32;20217;-55
2022/09/18 12:49:54;;;;;;;1.25;0.80;;;;;;;;;;4401588;32;20247;-55
2022/09/18 12:52:38;;;;;;;1.65;1.12;;;;;;;;;;4402390;32;20710;-55
2022/09/18 12:55:21;;;;;;;2.10;1.20;;;;;;;;;;4403481;32;20264;-57
2022/09/18 12:58:00;;;;;;;1.73;0.70;;;;;;;;;;4399748;32;20329;-56
2022/09/18 13:00:28;;;;;;;1.58;1.00;;;;;;;;;;4395773;32;20228;-57
2022/09/18 13:03:01;;;;;;;1.90;0.90;;;;;;;;;;4401343;32;20681;-57
2022/09/18 13:05:30;;;;;;;2.55;1.10;;;;;;;;;;4400568;32;20226;-56
2022/09/18 13:08:08;;;;;;;4.95;1.05;;;;;;;;;;4386902;32;20308;-56
2022/09/18 13:10:39;;;;;;;2.85;0.90;;;;;;;;;;4387573;32;20310;-55
2022/09/18 13:13:14;;;;;;;1.85;1.02;;;;;;;;;;4388112;32;20234;-56
2022/09/18 13:15:46;;;;;;;3.78;0.93;;;;;;;;;;4388329;32;20667;-56
2022/09/18 13:18:30;;;;;;;1.95;0.73;;;;;;;;;;4389951;32;20385;-58
2022/09/18 13:21:00;;;;;;;0.62;0.62;;;;;;;;;;4403355;32;20236;-55
2022/09/18 13:23:32;;;;;;;6.47;0.90;;;;;;;;;;4403068;32;20340;-56
2022/09/18 13:26:00;;;;;;;1.98;1.00;;;;;;;;;;4403414;32;20732;-55
2022/09/18 13:28:28;;;;;;;2.78;1.20;;;;;;;;;;4403079;32;20241;-57
2022/09/18 13:31:16;;;;;;;2.53;1.00;;;;;;;;;;4403065;32;20290;-58
2022/09/18 13:33:50;;;;;;;2.92;1.05;;;;;;;;;;4403034;32;20251;-56
2022/09/18 13:36:23;;;;;;;1.17;0.90;;;;;;;;;;4403364;32;20295;-56
2022/09/18 13:38:52;;;;;;;1.37;0.80;;;;;;;;;;4403001;32;20313;-63
2022/09/18 13:41:19;;;;;;;1.92;1.15;;;;;;;;;;4403211;32;20285;-55
2022/09/18 13:43:52;;;;;;;2.05;1.05;;;;;;;;;;4402943;32;20325;-55
2022/09/18 13:46:32;;;;;;;1.92;0.98;;;;;;;;;;4403307;32;20231;-56
2022/09/18 13:49:01;;;;;;;3.62;0.70;;;;;;;;;;4403010;32;20324;-55
2022/09/18 13:51:31;;;;;;;1.65;0.75;;;;;;;;;;4402622;32;20240;-56
2022/09/18 13:54:26;;;;;;;1.17;0.77;;;;;;;;;;4402714;32;20678;-56
2022/09/18 13:57:16;;;;;;;1.42;0.82;;;;;;;;;;4402718;32;20249;-55
2022/09/18 13:59:54;;;;;;;1.77;0.73;;;;;;;;;;4402677;32;20228;-56
2022/09/18 14:02:39;;;;;;;2.92;0.80;;;;;;;;;;4402087;32;20694;-56
2022/09/18 14:05:29;;;;;;;1.12;0.73;;;;;;;;;;4402462;32;20516;-55
2022/09/18 14:07:59;;;;;;;1.17;0.70;;;;;;;;;;4402230;32;20245;-55
2022/09/18 14:11:00;;;;;;;0.90;0.70;;;;;;;;;;4403027;32;20221;-56
2022/09/18 14:13:37;;;;;;;4.62;1.52;;;;;;;;;;4402484;32;20229;-55
2022/09/18 14:16:10;;;;;;;2.30;1.25;;;;;;;;;;4402803;32;20283;-55
2022/09/18 14:18:52;;;;;;;4.10;1.35;;;;;;;;;;4402621;32;20259;-55
2022/09/18 14:21:27;;;;;;;1.87;0.80;;;;;;;;;;4402344;32;20255;-56
2022/09/18 14:24:22;;;;;;;1.33;1.00;;;;;;;;;;4402903;32;20236;-56
2022/09/18 14:26:59;;;;;;;0.75;0.65;;;;;;;;;;4400589;32;20307;-56
2022/09/18 14:29:32;;;;;;;1.62;1.10;;;;;;;;;;4402440;32;20201;-55
2022/09/18 14:32:01;;;;;;;2.60;0.80;;;;;;;;;;4402082;32;20259;-55
2022/09/18 14:34:37;;;;;;;1.95;1.00;;;;;;;;;;4402546;32;20201;-56
2022/09/18 14:37:23;;;;;;;1.40;1.00;;;;;;;;;;4402127;32;20272;-56
2022/09/18 14:39:52;;;;;;;3.22;1.23;;;;;;;;;;4402455;32;20276;-56
2022/09/18 14:42:29;;;;;;;7.97;1.20;;;;;;;;;;4402202;32;20248;-56
2022/09/18 14:45:06;;;;;;;2.08;1.10;;;;;;;;;;4402829;32;20213;-56
2022/09/18 14:47:33;;;;;;;3.08;1.02;;;;;;;;;;4401800;32;20578;-56
2022/09/18 14:50:00;;;;;;;2.67;1.50;;;;;;;;;;4393496;32;20324;-56
2022/09/18 14:52:29;;;;;;;2.42;0.90;;;;;;;;;;4386043;32;20344;-56
2022/09/18 14:55:00;;;;;;;1.23;0.90;;;;;;;;;;4393469;32;20329;-55
2022/09/18 14:57:32;;;;;;;2.25;1.40;;;;;;;;;;4402209;32;20315;-55
2022/09/18 15:00:01;;;;;;;3.58;1.70;;;;;;;;;;4402507;32;20258;-55
2022/09/18 15:02:33;;;;;;;12.20;1.40;;;;;;;;;;4401550;32;20746;-56
2022/09/18 15:05:02;;;;;;;4.03;1.55;;;;;;;;;;4402179;32;20209;-56
2022/09/18 15:07:30;;;;;;;3.30;1.58;;;;;;;;;;4386224;32;20253;-55
2022/09/18 15:10:01;;;;;;;2.25;1.55;;;;;;;;;;4386279;32;20222;-55